Time;durP1;ratioP1;P1;durP2;ratioP2;P2;SDS_P1;SDS_P2;PMS_P1;PMS_P2;Temp;Humidity;BMP_temperature;BMP_pressure;BME280_temperature;BME280_humidity;BME280_pressure;Samples;Min_cycle;Max_cycle;Signal;HPM_P1;HPM_P2
2021/06/13 00:01:08;;;;;;;3.35;2.88;;;22.20;91.60;;;;;;5030033;28;20226;-69
2021/06/13 00:03:35;;;;;;;4.13;3.67;;;22.20;91.60;;;;;;5030104;28;20192;-69
2021/06/13 00:06:03;;;;;;;3.72;3.42;;;22.10;91.70;;;;;;5029632;28;20211;-68
2021/06/13 00:08:29;;;;;;;4.95;4.38;;;22.10;91.60;;;;;;5020412;28;20204;-69
2021/06/13 00:10:56;;;;;;;3.92;3.53;;;22.10;91.70;;;;;;5027219;28;20207;-68
2021/06/13 00:13:22;;;;;;;4.30;3.78;;;22.00;91.70;;;;;;5029150;28;20207;-68
2021/06/13 00:15:49;;;;;;;5.05;3.80;;;22.00;91.70;;;;;;5027986;28;20195;-69
2021/06/13 00:18:16;;;;;;;4.55;3.63;;;22.00;91.80;;;;;;5029698;28;20200;-69
2021/06/13 00:20:42;;;;;;;5.70;3.30;;;22.00;91.80;;;;;;5028785;28;20551;-69
2021/06/13 00:23:10;;;;;;;3.78;3.30;;;21.90;91.70;;;;;;5027763;28;20652;-68
2021/06/13 00:25:36;;;;;;;5.20;3.67;;;21.90;91.80;;;;;;5029209;28;20246;-68
2021/06/13 00:28:03;;;;;;;6.03;3.70;;;21.90;91.80;;;;;;5028784;28;20211;-68
2021/06/13 00:30:30;;;;;;;6.28;3.28;;;21.90;91.90;;;;;;5028410;28;20253;-69
2021/06/13 00:32:56;;;;;;;4.68;2.88;;;21.90;91.90;;;;;;5029017;28;20196;-68
2021/06/13 00:35:23;;;;;;;3.88;2.92;;;21.80;91.90;;;;;;5029661;28;20227;-69
2021/06/13 00:37:50;;;;;;;5.20;3.42;;;21.80;91.90;;;;;;5028936;28;20199;-69
2021/06/13 00:40:20;;;;;;;4.07;3.05;;;21.80;92.00;;;;;;5029739;28;20660;-68
2021/06/13 00:42:46;;;;;;;4.55;3.47;;;21.80;92.00;;;;;;5029234;28;20200;-68
2021/06/13 00:45:13;;;;;;;3.40;3.10;;;21.70;92.10;;;;;;5029700;28;20203;-68
2021/06/13 00:47:41;;;;;;;3.95;2.90;;;21.70;92.20;;;;;;5027993;28;20195;-68
2021/06/13 00:50:12;;;;;;;3.50;3.15;;;21.70;92.20;;;;;;5025190;28;20591;-68
2021/06/13 00:52:38;;;;;;;3.90;3.25;;;21.70;92.30;;;;;;5028347;28;20195;-69
2021/06/13 00:55:06;;;;;;;5.40;3.17;;;21.60;92.30;;;;;;5029181;28;20227;-68
2021/06/13 00:57:33;;;;;;;4.03;2.65;;;21.60;92.30;;;;;;5031060;28;20196;-69
2021/06/13 00:59:59;;;;;;;3.40;2.88;;;21.60;92.40;;;;;;5030693;28;20200;-69
2021/06/13 01:02:26;;;;;;;4.55;3.05;;;21.60;92.40;;;;;;5032694;28;20620;-69
2021/06/13 01:04:52;;;;;;;5.40;3.20;;;21.60;92.50;;;;;;5024502;28;20199;-69
2021/06/13 01:07:23;;;;;;;3.47;3.17;;;21.50;92.50;;;;;;5034049;28;20203;-68
2021/06/13 01:09:55;;;;;;;3.10;2.85;;;21.50;92.60;;;;;;5033033;28;20587;-69
2021/06/13 01:12:26;;;;;;;3.80;3.03;;;21.50;92.60;;;;;;5033428;28;20195;-69
2021/06/13 01:15:03;;;;;;;5.30;3.45;;;21.50;92.70;;;;;;5031478;28;20223;-69
2021/06/13 01:17:31;;;;;;;4.15;3.40;;;21.40;92.70;;;;;;5032014;28;20235;-69
2021/06/13 01:20:09;;;;;;;5.40;3.05;;;21.40;92.80;;;;;;5032986;28;20207;-70
2021/06/13 01:23:02;;;;;;;5.38;2.80;;;21.40;92.80;;;;;;5032165;28;20199;-69
2021/06/13 01:25:44;;;;;;;3.63;2.90;;;21.30;92.90;;;;;;5031722;28;20192;-69
2021/06/13 01:28:54;;;;;;;6.95;2.83;;;21.40;92.90;;;;;;5032210;28;20200;-69
2021/06/13 01:31:24;;;;;;;2.90;2.60;;;21.30;93.00;;;;;;5030555;28;20207;-69
2021/06/13 01:33:52;;;;;;;5.80;3.25;;;21.30;93.00;;;;;;5032414;28;20223;-69
2021/06/13 01:36:20;;;;;;;4.75;3.15;;;21.30;93.10;;;;;;5031737;28;20525;-69
2021/06/13 01:38:47;;;;;;;4.40;3.20;;;21.20;93.10;;;;;;5039732;28;20199;-69
2021/06/13 01:41:18;;;;;;;5.40;2.90;;;21.20;93.20;;;;;;5032721;28;20195;-70
2021/06/13 01:43:45;;;;;;;5.80;3.33;;;21.20;93.20;;;;;;5031931;28;20181;-69
2021/06/13 01:46:14;;;;;;;4.75;2.88;;;21.20;93.30;;;;;;5032239;28;20199;-69
2021/06/13 01:48:41;;;;;;;3.10;2.50;;;21.20;93.40;;;;;;5032365;28;20204;-70
2021/06/13 01:51:08;;;;;;;3.15;2.28;;;21.20;93.30;;;;;;5028809;28;20634;-69
2021/06/13 01:53:41;;;;;;;4.65;2.58;;;21.20;93.40;;;;;;5029714;28;20595;-69
2021/06/13 01:56:09;;;;;;;3.78;2.80;;;21.10;93.40;;;;;;5032104;28;20286;-69
2021/06/13 01:58:36;;;;;;;4.30;2.90;;;21.10;93.50;;;;;;5032242;28;20549;-68
2021/06/13 02:01:05;;;;;;;2.70;2.50;;;21.10;93.50;;;;;;5031617;28;20603;-68
2021/06/13 02:03:35;;;;;;;5.15;2.95;;;21.00;93.40;;;;;;5030880;28;20218;-68
2021/06/13 02:06:03;;;;;;;3.88;2.85;;;21.00;93.50;;;;;;5030294;28;21061;-69
2021/06/13 02:08:32;;;;;;;6.50;2.88;;;21.00;93.60;;;;;;5030969;28;20218;-69
2021/06/13 02:10:59;;;;;;;4.90;2.88;;;21.00;93.70;;;;;;5027493;28;20215;-69
2021/06/13 02:13:27;;;;;;;5.05;2.75;;;20.90;93.60;;;;;;5019050;28;20199;-69
2021/06/13 02:15:55;;;;;;;3.70;2.85;;;20.90;93.70;;;;;;5031604;28;20632;-69
2021/06/13 02:18:24;;;;;;;5.90;2.38;;;20.90;93.80;;;;;;5031939;28;20195;-69
2021/06/13 02:20:52;;;;;;;4.82;2.70;;;20.90;93.80;;;;;;5030749;28;20199;-69
2021/06/13 02:23:18;;;;;;;5.63;3.42;;;20.80;93.80;;;;;;5030539;28;20203;-69
2021/06/13 02:25:44;;;;;;;5.50;2.92;;;20.80;93.80;;;;;;5031924;28;20198;-69
2021/06/13 02:28:12;;;;;;;4.30;2.85;;;20.80;93.90;;;;;;5030179;28;20253;-68
2021/06/13 02:30:40;;;;;;;4.47;2.80;;;20.80;93.90;;;;;;5030822;28;20202;-69
2021/06/13 02:33:10;;;;;;;3.33;2.45;;;20.80;93.90;;;;;;5030698;28;20707;-69
2021/06/13 02:35:39;;;;;;;4.93;3.22;;;20.80;93.90;;;;;;5031067;28;20215;-69
2021/06/13 02:38:06;;;;;;;3.30;2.60;;;20.70;93.90;;;;;;5030116;28;20652;-69
2021/06/13 02:40:33;;;;;;;2.63;2.42;;;20.70;94.00;;;;;;5029844;28;20199;-69
2021/06/13 02:42:59;;;;;;;5.43;3.45;;;20.70;94.00;;;;;;5030334;28;20195;-69
2021/06/13 02:45:25;;;;;;;5.68;3.08;;;20.70;94.00;;;;;;5031986;28;20191;-68
2021/06/13 02:47:52;;;;;;;5.22;3.25;;;20.60;94.00;;;;;;5029035;28;20337;-69
2021/06/13 02:50:21;;;;;;;6.18;3.20;;;20.60;94.00;;;;;;5031357;28;20200;-68
2021/06/13 02:52:53;;;;;;;3.05;2.53;;;20.60;94.10;;;;;;5030842;28;22023;-68
2021/06/13 02:55:24;;;;;;;4.40;3.50;;;20.60;94.10;;;;;;5027147;28;20223;-69
2021/06/13 02:57:54;;;;;;;3.80;3.10;;;20.60;94.20;;;;;;5031579;28;20191;-69
2021/06/13 03:00:23;;;;;;;3.53;2.72;;;20.50;94.10;;;;;;5030792;28;20210;-68
2021/06/13 03:02:52;;;;;;;5.75;3.20;;;20.50;94.20;;;;;;5031373;28;20200;-69
2021/06/13 03:05:22;;;;;;;5.03;3.03;;;20.50;94.20;;;;;;5030881;28;20199;-69
2021/06/13 03:07:49;;;;;;;5.60;2.70;;;20.50;94.30;;;;;;5030712;28;20254;-68
2021/06/13 03:10:16;;;;;;;3.90;3.20;;;20.50;94.30;;;;;;5030952;28;20214;-68
2021/06/13 03:12:44;;;;;;;3.38;2.30;;;20.50;94.40;;;;;;5029676;28;20611;-68
2021/06/13 03:15:11;;;;;;;3.50;2.88;;;20.40;94.40;;;;;;5023982;28;20599;-68
2021/06/13 03:17:39;;;;;;;2.88;2.58;;;20.40;94.50;;;;;;5027298;28;20211;-68
2021/06/13 03:20:08;;;;;;;5.20;2.85;;;20.40;94.50;;;;;;5030361;28;20199;-68
2021/06/13 03:22:36;;;;;;;3.92;3.00;;;20.30;94.50;;;;;;5026565;28;20207;-68
2021/06/13 03:25:03;;;;;;;4.18;2.53;;;20.30;94.60;;;;;;5030157;28;20203;-68
2021/06/13 03:27:30;;;;;;;6.38;3.10;;;20.30;94.50;;;;;;5018282;28;20256;-68
2021/06/13 03:30:00;;;;;;;4.20;3.40;;;20.30;94.60;;;;;;5027034;28;20199;-68
2021/06/13 03:32:27;;;;;;;3.50;3.00;;;20.30;94.60;;;;;;5026621;28;20259;-68
2021/06/13 03:34:54;;;;;;;4.65;3.10;;;20.30;94.70;;;;;;5027476;28;20219;-68
2021/06/13 03:37:22;;;;;;;3.20;2.90;;;20.30;94.80;;;;;;5025295;28;20203;-68
2021/06/13 03:39:49;;;;;;;4.32;2.90;;;20.20;94.70;;;;;;5027368;28;20207;-67
2021/06/13 03:42:18;;;;;;;3.58;3.10;;;20.20;94.70;;;;;;5025372;28;20238;-68
2021/06/13 03:44:46;;;;;;;3.35;2.50;;;20.20;94.80;;;;;;5026773;28;20203;-68
2021/06/13 03:47:16;;;;;;;3.80;3.05;;;20.20;94.80;;;;;;5027784;28;22138;-68
2021/06/13 03:49:47;;;;;;;3.67;2.80;;;20.10;94.90;;;;;;5027319;28;20199;-68
2021/06/13 03:52:14;;;;;;;4.22;2.83;;;20.10;95.00;;;;;;5030568;28;20199;-68
2021/06/13 03:54:40;;;;;;;3.65;3.25;;;20.10;95.00;;;;;;5027519;28;20226;-68
2021/06/13 03:57:09;;;;;;;4.18;3.28;;;20.10;95.00;;;;;;5027365;28;20207;-68
2021/06/13 03:59:37;;;;;;;5.38;3.63;;;20.10;95.00;;;;;;5026843;28;20195;-68
2021/06/13 04:02:06;;;;;;;3.03;2.72;;;20.10;95.10;;;;;;5029871;28;20203;-68
2021/06/13 04:04:41;;;;;;;3.17;2.85;;;20.00;95.10;;;;;;5030175;28;20214;-68
2021/06/13 04:07:09;;;;;;;4.82;3.17;;;20.00;95.20;;;;;;5030016;28;20203;-68
2021/06/13 04:09:39;;;;;;;4.28;2.70;;;20.00;95.20;;;;;;5028563;28;20203;-68
2021/06/13 04:12:08;;;;;;;3.85;2.83;;;20.00;95.20;;;;;;5028696;28;20210;-69
2021/06/13 04:14:35;;;;;;;4.57;2.80;;;20.00;95.20;;;;;;5030123;28;20223;-68
2021/06/13 04:17:03;;;;;;;3.50;2.40;;;20.00;95.30;;;;;;5028955;28;20219;-69
2021/06/13 04:19:31;;;;;;;3.30;2.95;;;20.00;95.30;;;;;;5030270;28;20758;-68
2021/06/13 04:22:00;;;;;;;4.70;3.28;;;20.00;95.30;;;;;;5029982;28;20200;-68
2021/06/13 04:24:27;;;;;;;3.40;2.97;;;19.90;95.40;;;;;;5023969;28;20529;-68
2021/06/13 04:26:55;;;;;;;4.75;2.70;;;19.90;95.40;;;;;;5029588;28;20658;-68
2021/06/13 04:29:22;;;;;;;4.18;2.72;;;19.90;95.40;;;;;;5028644;28;20303;-68
2021/06/13 04:31:49;;;;;;;3.95;3.08;;;19.90;95.50;;;;;;5028854;28;20633;-68
2021/06/13 04:34:16;;;;;;;3.20;2.90;;;19.80;95.50;;;;;;5032987;28;20234;-68
2021/06/13 04:36:42;;;;;;;5.03;3.10;;;19.80;95.60;;;;;;5033869;28;20203;-68
2021/06/13 04:39:10;;;;;;;5.88;3.17;;;19.80;95.70;;;;;;5033572;28;20214;-68
2021/06/13 04:41:37;;;;;;;6.10;3.33;;;19.80;95.60;;;;;;5034141;28;20211;-68
2021/06/13 04:44:04;;;;;;;3.65;2.88;;;19.80;95.70;;;;;;5033313;28;20659;-68
2021/06/13 04:46:32;;;;;;;5.25;3.50;;;19.80;95.70;;;;;;5030687;28;20203;-68
2021/06/13 04:48:59;;;;;;;5.35;3.30;;;19.80;95.80;;;;;;5030368;28;20219;-68
2021/06/13 04:51:27;;;;;;;3.55;2.55;;;19.80;95.80;;;;;;5030466;28;20207;-68
2021/06/13 04:54:33;;;;;;;4.47;3.38;;;19.70;95.80;;;;;;5030166;28;21758;-68
2021/06/13 04:57:25;;;;;;;3.22;2.42;;;19.70;96.10;;;;;;4988583;28;20522;-68
2021/06/13 04:59:52;;;;;;;2.78;2.38;;;19.70;96.00;;;;;;4989157;28;20213;-68
2021/06/13 05:02:19;;;;;;;4.80;2.50;;;19.70;95.90;;;;;;5015411;28;20210;-68
2021/06/13 05:04:46;;;;;;;2.92;2.63;;;19.70;96.00;;;;;;5027402;28;20202;-68
2021/06/13 05:07:13;;;;;;;3.13;2.88;;;19.70;96.00;;;;;;5029906;28;20207;-68
2021/06/13 05:09:43;;;;;;;3.58;2.92;;;19.70;96.00;;;;;;5027381;28;20207;-68
2021/06/13 05:12:10;;;;;;;3.80;3.03;;;19.70;96.10;;;;;;5027378;28;20223;-68
2021/06/13 05:14:36;;;;;;;5.25;3.28;;;19.70;96.10;;;;;;5029391;28;20211;-68
2021/06/13 05:17:04;;;;;;;4.53;2.88;;;19.70;96.20;;;;;;5029442;28;20567;-68
2021/06/13 05:19:30;;;;;;;3.80;2.65;;;19.70;96.30;;;;;;5030076;28;20204;-68
2021/06/13 05:21:57;;;;;;;3.53;3.00;;;19.60;96.20;;;;;;5027384;28;20203;-68
2021/06/13 05:24:24;;;;;;;3.17;2.85;;;19.60;96.40;;;;;;5029444;28;20204;-68
2021/06/13 05:26:52;;;;;;;7.20;3.67;;;19.70;96.40;;;;;;5031282;28;20246;-68
2021/06/13 05:29:19;;;;;;;3.85;2.90;;;19.70;96.10;;;;;;5030366;28;20201;-68
2021/06/13 05:31:45;;;;;;;7.80;2.65;;;19.90;95.80;;;;;;5032053;28;20528;-68
2021/06/13 05:34:12;;;;;;;7.93;2.90;;;19.90;95.40;;;;;;5031546;28;20243;-68
2021/06/13 05:36:39;;;;;;;3.20;2.95;;;20.10;94.80;;;;;;5031245;28;20199;-69
2021/06/13 05:39:05;;;;;;;5.43;3.25;;;20.20;94.30;;;;;;5030416;28;20671;-68
2021/06/13 05:41:33;;;;;;;3.63;3.20;;;20.30;93.70;;;;;;5030908;28;20199;-68
2021/06/13 05:44:02;;;;;;;4.38;2.97;;;20.50;93.50;;;;;;5031921;28;20199;-68
2021/06/13 05:46:29;;;;;;;7.47;3.83;;;20.70;93.10;;;;;;5031642;28;20199;-67
2021/06/13 05:48:55;;;;;;;5.25;3.60;;;20.90;92.60;;;;;;5031389;28;20196;-68
2021/06/13 05:51:22;;;;;;;3.03;2.58;;;21.10;92.00;;;;;;5032918;28;20203;-69
2021/06/13 05:53:49;;;;;;;4.15;2.83;;;21.30;91.50;;;;;;5031749;28;20218;-69
2021/06/13 05:56:15;;;;;;;5.88;3.63;;;21.40;91.00;;;;;;5030729;28;20219;-69
2021/06/13 05:58:42;;;;;;;3.15;2.75;;;21.50;90.60;;;;;;5028657;28;20648;-69
2021/06/13 06:01:10;;;;;;;4.35;2.72;;;21.60;90.40;;;;;;5026822;28;20207;-69
2021/06/13 06:03:37;;;;;;;4.63;2.90;;;21.60;90.10;;;;;;5026535;28;20203;-68
2021/06/13 06:06:04;;;;;;;5.40;3.10;;;21.70;89.90;;;;;;5028737;28;20195;-69
2021/06/13 06:08:30;;;;;;;9.45;3.05;;;21.80;89.30;;;;;;5027957;28;20201;-68
2021/06/13 06:10:57;;;;;;;7.45;3.80;;;21.90;88.90;;;;;;5029514;28;20675;-69
2021/06/13 06:13:24;;;;;;;4.88;2.90;;;21.90;88.00;;;;;;5027440;28;20229;-68
2021/06/13 06:15:51;;;;;;;3.95;2.63;;;22.00;88.10;;;;;;5027706;28;20545;-69
2021/06/13 06:18:19;;;;;;;7.68;3.50;;;22.00;87.80;;;;;;5028587;28;20250;-69
2021/06/13 06:20:45;;;;;;;3.75;3.08;;;22.00;87.30;;;;;;5029623;28;20207;-69
2021/06/13 06:23:12;;;;;;;4.72;3.30;;;22.20;87.00;;;;;;5029081;28;20200;-69
2021/06/13 06:25:39;;;;;;;5.43;2.70;;;22.20;86.70;;;;;;5029389;28;20595;-69
2021/06/13 06:28:05;;;;;;;7.72;2.97;;;22.30;87.00;;;;;;5028301;28;20203;-68
2021/06/13 06:30:33;;;;;;;6.05;2.95;;;22.40;85.70;;;;;;5027903;28;20540;-68
2021/06/13 06:32:59;;;;;;;6.05;3.17;;;22.50;85.30;;;;;;5026566;28;20231;-69
2021/06/13 06:35:28;;;;;;;4.43;2.70;;;22.60;84.80;;;;;;5028427;28;20216;-69
2021/06/13 06:37:55;;;;;;;3.83;2.97;;;22.60;84.50;;;;;;5026321;28;20457;-69
2021/06/13 06:40:22;;;;;;;4.93;3.07;;;22.70;84.00;;;;;;5031358;28;20465;-69
2021/06/13 06:42:48;;;;;;;4.95;3.30;;;22.80;83.30;;;;;;5030163;28;20469;-69
2021/06/13 06:45:15;;;;;;;4.03;2.38;;;22.90;83.30;;;;;;5032172;28;20542;-69
2021/06/13 06:47:43;;;;;;;4.63;2.53;;;23.00;83.00;;;;;;5030587;28;20887;-69
2021/06/13 06:50:11;;;;;;;3.63;2.47;;;23.00;82.60;;;;;;5031021;28;20454;-69
2021/06/13 06:52:40;;;;;;;4.50;2.53;;;23.10;82.60;;;;;;5030590;28;20462;-69
2021/06/13 06:55:08;;;;;;;4.70;3.13;;;23.20;82.10;;;;;;5030496;28;20482;-69
2021/06/13 06:57:37;;;;;;;3.67;2.40;;;23.20;81.50;;;;;;5029524;28;20550;-68
2021/06/13 07:00:05;;;;;;;4.67;2.70;;;23.30;81.60;;;;;;5030438;28;20473;-68
2021/06/13 07:02:32;;;;;;;5.33;2.80;;;23.30;81.10;;;;;;5030051;28;20462;-68
2021/06/13 07:04:58;;;;;;;4.60;2.83;;;23.30;81.20;;;;;;5031223;28;20465;-68
2021/06/13 07:07:25;;;;;;;4.63;3.03;;;23.30;81.10;;;;;;5028939;28;20468;-69
2021/06/13 07:09:53;;;;;;;4.07;3.13;;;23.40;80.60;;;;;;5030121;28;20465;-68
2021/06/13 07:12:20;;;;;;;5.40;2.40;;;23.50;80.40;;;;;;5030723;28;20462;-69
2021/06/13 07:14:46;;;;;;;4.20;2.87;;;23.50;80.20;;;;;;5029591;28;20493;-69
2021/06/13 07:17:13;;;;;;;3.90;2.63;;;23.50;79.60;;;;;;5030359;28;21210;-68
2021/06/13 07:19:40;;;;;;;4.13;2.90;;;23.60;79.60;;;;;;5021380;28;20469;-68
2021/06/13 07:22:06;;;;;;;4.83;2.93;;;23.70;79.50;;;;;;5027769;28;20462;-68
2021/06/13 07:24:33;;;;;;;4.30;2.50;;;23.70;79.20;;;;;;5026835;28;20458;-69
2021/06/13 07:27:01;;;;;;;6.47;2.30;;;23.80;78.90;;;;;;5027058;28;20461;-68
2021/06/13 07:29:28;;;;;;;5.77;2.67;;;23.90;78.40;;;;;;5026758;28;20927;-69
2021/06/13 07:31:55;;;;;;;2.80;1.93;;;23.90;78.10;;;;;;5027196;28;20625;-68
2021/06/13 07:34:22;;;;;;;3.90;2.50;;;23.90;78.00;;;;;;5025134;28;20485;-68
2021/06/13 07:36:48;;;;;;;5.23;2.73;;;24.00;77.70;;;;;;5027519;28;20946;-69
2021/06/13 07:39:15;;;;;;;6.27;2.50;;;24.10;77.40;;;;;;5027199;28;20465;-68
2021/06/13 07:41:42;;;;;;;3.23;2.40;;;24.20;77.20;;;;;;5025618;28;21625;-68
2021/06/13 07:44:10;;;;;;;4.70;3.33;;;24.20;77.20;;;;;;5026333;28;20462;-69
2021/06/13 07:46:37;;;;;;;5.50;2.73;;;24.20;76.70;;;;;;5028594;28;20454;-68
2021/06/13 07:49:05;;;;;;;3.67;2.33;;;24.30;76.70;;;;;;5025300;28;20557;-69
2021/06/13 07:51:32;;;;;;;2.70;2.20;;;24.30;76.50;;;;;;5023997;28;20450;-69
2021/06/13 07:53:59;;;;;;;3.40;2.60;;;24.40;76.30;;;;;;5023724;28;20458;-69
2021/06/13 07:56:25;;;;;;;4.40;2.40;;;24.40;75.60;;;;;;5023805;28;20465;-71
2021/06/13 07:58:52;;;;;;;3.00;2.30;;;24.50;76.20;;;;;;5023882;28;20473;-69
2021/06/13 08:01:20;;;;;;;3.20;2.70;;;24.50;75.40;;;;;;5024477;28;20780;-68
2021/06/13 08:03:47;;;;;;;5.50;2.63;;;24.60;75.20;;;;;;5023793;28;20497;-68
2021/06/13 08:06:13;;;;;;;4.80;2.90;;;24.60;74.70;;;;;;5024453;28;20461;-68
2021/06/13 08:08:40;;;;;;;3.60;2.47;;;24.60;74.30;;;;;;5024386;28;20465;-68
2021/06/13 08:11:09;;;;;;;2.60;2.40;;;24.60;73.70;;;;;;5028192;28;20457;-68
2021/06/13 08:13:36;;;;;;;5.47;2.90;;;24.70;74.60;;;;;;5028352;28;20461;-68
2021/06/13 08:16:02;;;;;;;4.13;2.83;;;24.70;74.20;;;;;;5027073;28;20493;-67
2021/06/13 08:18:30;;;;;;;2.93;2.40;;;24.80;74.20;;;;;;5029847;28;20458;-68
2021/06/13 08:20:57;;;;;;;3.13;2.43;;;24.80;73.60;;;;;;5032564;28;20469;-68
2021/06/13 08:23:24;;;;;;;4.53;2.60;;;24.80;73.30;;;;;;5032474;28;20458;-68
2021/06/13 08:25:50;;;;;;;3.83;2.87;;;24.90;74.10;;;;;;5031173;28;20457;-68
2021/06/13 08:28:18;;;;;;;4.83;2.73;;;24.90;73.20;;;;;;5031709;28;20452;-68
2021/06/13 08:30:45;;;;;;;5.13;3.13;;;24.90;73.50;;;;;;5031341;28;20545;-68
2021/06/13 08:33:12;;;;;;;3.20;2.70;;;25.00;74.00;;;;;;5030429;28;20994;-69
2021/06/13 08:35:40;;;;;;;2.20;2.00;;;25.00;72.90;;;;;;5031457;28;20500;-68
2021/06/13 08:38:07;;;;;;;4.90;2.57;;;25.00;72.90;;;;;;5031977;28;20496;-68
2021/06/13 08:40:34;;;;;;;3.10;2.47;;;25.10;72.90;;;;;;5031598;28;20939;-68
2021/06/13 08:43:01;;;;;;;3.13;2.70;;;25.10;72.80;;;;;;5030231;28;20458;-68
2021/06/13 08:45:30;;;;;;;3.80;2.70;;;25.10;72.80;;;;;;5031172;28;20488;-68
2021/06/13 08:47:59;;;;;;;2.53;2.17;;;25.10;72.10;;;;;;5033324;28;20460;-69
2021/06/13 08:50:26;;;;;;;3.60;2.27;;;25.10;71.40;;;;;;5033894;28;20485;-69
2021/06/13 08:52:54;;;;;;;3.40;2.50;;;25.10;71.20;;;;;;5033336;28;20465;-68
2021/06/13 08:55:23;;;;;;;2.80;2.17;;;25.10;72.30;;;;;;5026573;28;20478;-68
2021/06/13 08:57:50;;;;;;;3.43;2.10;;;25.10;71.80;;;;;;5029566;28;20454;-68
2021/06/13 09:00:21;;;;;;;3.40;2.07;;;25.20;72.80;;;;;;5029110;28;20454;-68
2021/06/13 09:02:48;;;;;;;2.57;1.97;;;25.20;73.20;;;;;;5029385;28;20457;-69
2021/06/13 09:05:19;;;;;;;4.70;2.80;;;25.20;72.90;;;;;;5030444;28;20458;-68
2021/06/13 09:07:51;;;;;;;4.60;3.20;;;25.20;71.00;;;;;;5028004;28;20452;-69
2021/06/13 09:10:23;;;;;;;4.90;2.77;;;25.20;71.40;;;;;;5028940;28;20485;-68
2021/06/13 09:12:50;;;;;;;4.47;2.63;;;25.30;71.90;;;;;;5030203;28;20541;-68
2021/06/13 09:15:17;;;;;;;2.23;2.03;;;25.30;72.30;;;;;;5030089;28;20458;-69
2021/06/13 09:17:44;;;;;;;3.27;2.10;;;25.30;72.00;;;;;;5029564;28;20495;-68
2021/06/13 09:20:19;;;;;;;3.17;2.43;;;25.30;72.50;;;;;;5028037;28;20889;-68
2021/06/13 09:23:09;;;;;;;4.90;2.60;;;25.30;72.50;;;;;;5027670;28;20453;-68
2021/06/13 09:25:40;;;;;;;2.77;2.10;;;25.30;70.50;;;;;;5029951;28;21038;-68
2021/06/13 09:28:10;;;;;;;3.23;2.67;;;25.30;71.10;;;;;;5028269;28;20454;-68
2021/06/13 09:30:40;;;;;;;3.93;2.20;;;25.30;70.60;;;;;;5027220;28;20464;-69
2021/06/13 09:33:13;;;;;;;2.90;2.50;;;25.30;69.90;;;;;;5027936;28;20481;-68
2021/06/13 09:35:41;;;;;;;3.60;2.40;;;25.30;70.90;;;;;;5029656;28;20938;-68
2021/06/13 09:38:13;;;;;;;2.47;1.93;;;25.30;71.00;;;;;;5028411;28;20462;-68
2021/06/13 09:40:43;;;;;;;4.57;2.70;;;25.30;71.70;;;;;;5027380;28;20454;-70
2021/06/13 09:43:12;;;;;;;2.90;2.17;;;25.30;71.60;;;;;;5015519;28;20454;-67
2021/06/13 09:45:38;;;;;;;3.50;1.97;;;25.30;70.70;;;;;;5027573;28;20465;-67
2021/06/13 09:48:07;;;;;;;4.70;2.40;;;25.30;70.30;;;;;;5029266;28;20465;-68
2021/06/13 09:50:39;;;;;;;2.83;2.43;;;25.30;70.50;;;;;;5029602;28;20458;-70
2021/06/13 09:53:22;;;;;;;2.20;1.87;;;25.30;71.80;;;;;;5026811;28;20919;-70
2021/06/13 09:56:05;;;;;;;2.77;2.27;;;25.30;69.90;;;;;;5021661;28;20958;-70
2021/06/13 09:58:32;;;;;;;3.00;2.20;;;25.30;70.70;;;;;;5032831;28;20441;-70
2021/06/13 10:01:06;;;;;;;3.70;2.40;;;25.30;70.30;;;;;;5028291;28;20461;-70
2021/06/13 10:03:36;;;;;;;4.27;2.43;;;25.20;70.90;;;;;;5032887;28;20472;-69
2021/06/13 10:06:04;;;;;;;3.33;2.20;;;25.20;71.60;;;;;;5025246;28;20547;-70
2021/06/13 10:08:31;;;;;;;3.43;2.20;;;25.20;71.40;;;;;;5032501;28;20461;-69
2021/06/13 10:11:00;;;;;;;2.50;2.20;;;25.20;69.90;;;;;;5032016;28;20461;-70
2021/06/13 10:13:49;;;;;;;4.03;2.53;;;25.10;70.70;;;;;;5012539;28;20450;-69
2021/06/13 10:16:28;;;;;;;3.10;2.03;;;25.10;71.10;;;;;;5018562;28;20481;-72
2021/06/13 10:18:56;;;;;;;2.50;2.30;;;25.10;70.80;;;;;;5030288;28;20467;-68
2021/06/13 10:21:26;;;;;;;3.50;2.43;;;25.10;71.00;;;;;;5027187;28;20485;-69
2021/06/13 10:23:54;;;;;;;4.17;2.60;;;25.00;71.50;;;;;;5030462;28;20453;-69
2021/06/13 10:26:22;;;;;;;3.50;2.50;;;25.00;70.60;;;;;;5032392;28;20438;-69
2021/06/13 10:28:49;;;;;;;5.80;2.60;;;25.00;70.40;;;;;;5029984;28;20443;-70
2021/06/13 10:31:16;;;;;;;4.37;2.97;;;25.00;71.00;;;;;;5030713;28;20462;-70
2021/06/13 10:33:42;;;;;;;2.87;2.27;;;25.00;70.60;;;;;;5030428;28;20470;-69
2021/06/13 10:36:09;;;;;;;3.10;2.10;;;24.90;70.90;;;;;;5031413;28;20481;-69
2021/06/13 10:38:37;;;;;;;4.43;2.57;;;24.90;71.50;;;;;;5031019;28;20446;-69
2021/06/13 10:41:04;;;;;;;2.67;2.47;;;24.90;71.90;;;;;;5030566;28;20474;-69
2021/06/13 10:43:33;;;;;;;2.90;2.23;;;24.90;71.40;;;;;;5031817;28;20508;-69
2021/06/13 10:46:14;;;;;;;3.47;2.80;;;24.80;71.00;;;;;;5031146;28;20466;-69
2021/06/13 10:48:43;;;;;;;2.87;2.47;;;24.80;70.90;;;;;;5031458;28;20446;-69
2021/06/13 10:51:41;;;;;;;2.60;2.03;;;24.80;71.10;;;;;;5022950;28;20872;-70
2021/06/13 10:54:25;;;;;;;2.27;2.00;;;24.70;71.30;;;;;;5012538;28;20442;-70
2021/06/13 10:56:53;;;;;;;2.57;2.13;;;24.70;71.50;;;;;;5030472;28;20485;-69
2021/06/13 10:59:21;;;;;;;3.20;2.73;;;24.70;71.10;;;;;;5031560;28;20457;-69
2021/06/13 11:02:08;;;;;;;3.33;2.57;;;24.70;71.00;;;;;;5022653;28;20466;-69
2021/06/13 11:04:42;;;;;;;3.50;2.40;;;24.60;71.00;;;;;;5032177;28;20875;-69
2021/06/13 11:07:09;;;;;;;4.20;3.17;;;24.60;70.60;;;;;;5030718;28;20443;-69
2021/06/13 11:10:17;;;;;;;2.40;1.97;;;24.60;70.50;;;;;;5029113;28;20442;-69
2021/06/13 11:12:47;;;;;;;6.10;2.27;;;24.60;70.30;;;;;;5021738;28;20553;-69
2021/06/13 11:15:36;;;;;;;3.37;2.40;;;24.60;71.30;;;;;;5024654;28;20752;-70
2021/06/13 11:18:04;;;;;;;5.30;2.53;;;24.50;70.90;;;;;;5012644;28;20487;-69
2021/06/13 11:20:44;;;;;;;2.83;2.17;;;24.50;70.00;;;;;;5012040;28;20479;-69
2021/06/13 11:23:16;;;;;;;7.00;2.20;;;24.50;70.70;;;;;;5021047;28;20462;-69
2021/06/13 11:25:43;;;;;;;4.03;2.50;;;24.50;71.10;;;;;;5030766;28;20474;-69
2021/06/13 11:28:15;;;;;;;2.43;2.23;;;24.50;71.10;;;;;;5028610;28;20446;-69
2021/06/13 11:30:46;;;;;;;3.67;3.20;;;24.40;71.80;;;;;;5030979;28;20446;-70
2021/06/13 11:33:33;;;;;;;2.90;2.20;;;24.50;72.00;;;;;;5030246;28;20492;-69
2021/06/13 11:36:00;;;;;;;3.57;2.27;;;24.50;71.40;;;;;;5030897;28;20477;-69
2021/06/13 11:38:30;;;;;;;3.37;2.20;;;24.40;71.30;;;;;;5029187;28;20477;-70
2021/06/13 11:40:59;;;;;;;5.13;2.50;;;24.40;71.10;;;;;;5022170;28;20431;-69
2021/06/13 11:43:41;;;;;;;3.10;2.57;;;24.40;71.00;;;;;;5030053;28;20468;-69
2021/06/13 11:46:10;;;;;;;3.00;2.70;;;24.40;71.20;;;;;;5029429;28;20443;-69
2021/06/13 11:48:38;;;;;;;3.87;2.73;;;24.40;72.30;;;;;;5026915;28;20488;-69
2021/06/13 11:51:10;;;;;;;4.77;2.80;;;24.30;71.60;;;;;;5031062;28;20461;-69
2021/06/13 11:53:50;;;;;;;5.23;2.77;;;24.30;72.60;;;;;;5030788;28;20453;-69
2021/06/13 11:56:41;;;;;;;2.93;2.23;;;24.30;72.20;;;;;;5029417;28;20453;-70
2021/06/13 11:59:11;;;;;;;5.10;2.43;;;24.30;72.20;;;;;;5030673;28;20954;-70
2021/06/13 12:01:40;;;;;;;4.37;2.57;;;24.30;72.00;;;;;;5029970;28;20942;-69
2021/06/13 12:04:13;;;;;;;4.03;2.27;;;24.30;71.80;;;;;;5029300;28;20454;-69
2021/06/13 12:06:40;;;;;;;2.53;2.27;;;24.20;72.00;;;;;;5030283;28;20775;-69
2021/06/13 12:09:09;;;;;;;5.07;2.50;;;24.20;72.70;;;;;;5031154;28;20438;-69
2021/06/13 12:11:41;;;;;;;7.90;2.60;;;24.20;73.10;;;;;;5030361;28;20504;-69
2021/06/13 12:14:23;;;;;;;3.77;2.50;;;24.20;73.30;;;;;;5030966;28;20438;-69
2021/06/13 12:16:53;;;;;;;4.20;3.57;;;24.20;72.90;;;;;;5028138;28;20470;-69
2021/06/13 12:19:35;;;;;;;3.13;2.83;;;24.20;72.80;;;;;;5031100;28;20453;-69
2021/06/13 12:22:22;;;;;;;3.83;2.77;;;24.20;72.60;;;;;;5029301;28;20457;-69
2021/06/13 12:27:33;;;;;;;3.77;2.73;;;24.20;73.10;;;;;;5029662;28;20783;-69
2021/06/13 12:30:03;;;;;;;2.80;2.43;;;24.20;73.70;;;;;;5030716;28;21233;-69
2021/06/13 12:32:32;;;;;;;6.80;2.50;;;24.10;72.80;;;;;;5030989;28;20438;-69
2021/06/13 12:35:08;;;;;;;4.90;2.77;;;24.10;72.40;;;;;;5029867;28;20569;-69
2021/06/13 12:37:35;;;;;;;3.93;3.03;;;24.10;73.00;;;;;;5030848;28;20492;-68
2021/06/13 12:40:04;;;;;;;3.10;2.80;;;24.10;72.50;;;;;;5030336;28;20981;-69
2021/06/13 12:42:32;;;;;;;2.60;1.97;;;24.10;73.00;;;;;;5031388;28;20442;-69
2021/06/13 12:45:00;;;;;;;3.77;2.63;;;24.10;73.50;;;;;;5027636;28;20465;-69
2021/06/13 12:47:28;;;;;;;5.10;3.47;;;24.00;71.90;;;;;;5029093;28;20458;-69
2021/06/13 12:49:57;;;;;;;3.73;2.83;;;24.00;72.50;;;;;;5020496;28;20453;-69
2021/06/13 12:52:25;;;;;;;5.20;2.67;;;24.00;73.40;;;;;;5030114;28;20508;-69
2021/06/13 12:54:57;;;;;;;3.60;2.60;;;24.10;73.40;;;;;;5033965;28;20468;-69
2021/06/13 12:57:25;;;;;;;5.00;3.00;;;24.00;72.80;;;;;;5033676;28;20485;-69
2021/06/13 12:59:52;;;;;;;4.30;2.90;;;24.00;72.30;;;;;;5034447;28;20867;-69
2021/06/13 13:02:19;;;;;;;2.60;2.07;;;24.00;73.00;;;;;;5033018;28;20462;-69